createdAt,value
2019-05-02T00:01:26.788Z,37.30
2019-05-02T00:03:56.231Z,40.07
2019-05-02T00:06:26.104Z,38.77
2019-05-02T00:08:55.865Z,38.83
2019-05-02T00:11:26.167Z,37.30
2019-05-02T00:13:55.876Z,38.10
2019-05-02T00:16:25.480Z,37.03
2019-05-02T00:18:54.662Z,37.97
2019-05-02T00:21:23.987Z,38.73
2019-05-02T00:23:53.683Z,37.43
2019-05-02T00:26:24.549Z,39.47
2019-05-02T00:28:53.753Z,39.03
2019-05-02T00:31:22.995Z,40.50
2019-05-02T00:33:52.237Z,41.97
2019-05-02T00:36:21.412Z,41.73
2019-05-02T00:38:50.652Z,43.23
2019-05-02T00:41:19.886Z,43.83
2019-05-02T00:43:49.055Z,45.57
2019-05-02T00:46:18.636Z,47.40
2019-05-02T00:48:54.137Z,44.47
2019-05-02T00:51:26.699Z,47.20
2019-05-02T00:53:56.062Z,46.37
2019-05-02T00:56:25.241Z,47.77
2019-05-02T00:58:54.524Z,45.97
2019-05-02T01:01:41.702Z,46.13
2019-05-02T01:04:23.377Z,44.87
2019-05-02T01:06:51.599Z,47.67
2019-05-02T01:09:20.763Z,45.57
2019-05-02T01:11:50.008Z,48.67
2019-05-02T01:14:19.156Z,51.23
2019-05-02T01:16:49.382Z,49.47
2019-05-02T01:19:19.290Z,52.87
2019-05-02T01:21:48.568Z,49.97
2019-05-02T01:24:17.834Z,51.47
2019-05-02T01:27:06.544Z,51.87
2019-05-02T01:29:50.667Z,51.60
2019-05-02T01:32:32.456Z,56.33
2019-05-02T01:35:07.521Z,54.87
2019-05-02T01:37:56.016Z,57.57
2019-05-02T01:40:25.468Z,58.23
2019-05-02T01:42:57.401Z,60.97
2019-05-02T01:45:26.667Z,62.83
2019-05-02T01:47:55.934Z,62.07
2019-05-02T01:50:28.871Z,65.57
2019-05-02T01:52:58.491Z,60.23
2019-05-02T01:55:27.551Z,58.90
2019-05-02T01:57:57.045Z,59.40
2019-05-02T02:00:26.213Z,60.27
2019-05-02T02:02:55.863Z,60.83
2019-05-02T02:05:27.679Z,63.30
2019-05-02T02:07:57.480Z,58.37
2019-05-02T02:10:27.244Z,59.97
2019-05-02T02:13:04.701Z,59.07
2019-05-02T02:15:29.031Z,61.97
2019-05-02T02:17:58.723Z,58.27
2019-05-02T02:20:30.557Z,60.07
2019-05-02T02:23:27.993Z,61.73
2019-05-02T02:26:00.466Z,61.10
2019-05-02T02:28:32.055Z,61.63
2019-05-02T02:31:04.736Z,59.93
2019-05-02T02:33:32.428Z,65.23
2019-05-02T02:36:01.944Z,62.07
2019-05-02T02:38:33.789Z,61.17
2019-05-02T02:41:06.335Z,62.97
2019-05-02T02:43:35.072Z,60.93
2019-05-02T02:46:22.830Z,64.23
2019-05-02T02:48:52.590Z,63.77
2019-05-02T02:51:24.533Z,63.87
2019-05-02T02:54:03.040Z,66.30
2019-05-02T02:56:24.153Z,66.87
2019-05-02T02:58:53.433Z,60.73
2019-05-02T03:01:28.739Z,65.37
2019-05-02T03:03:53.971Z,64.33
2019-05-02T03:06:23.643Z,64.70
2019-05-02T03:08:53.148Z,65.70
2019-05-02T03:11:25.534Z,63.40
2019-05-02T03:14:07.474Z,65.47
2019-05-02T03:16:33.199Z,64.97
2019-05-02T03:19:02.626Z,63.53
2019-05-02T03:21:32.163Z,63.67
2019-05-02T03:24:03.427Z,65.37
2019-05-02T03:26:33.668Z,60.80
2019-05-02T03:29:04.386Z,61.93
2019-05-02T03:31:33.988Z,63.50
2019-05-02T03:34:03.806Z,60.97
2019-05-02T03:36:36.456Z,64.40
2019-05-02T03:39:13.963Z,61.07
2019-05-02T03:41:36.681Z,61.23
2019-05-02T03:44:10.984Z,57.47
2019-05-02T03:46:36.802Z,63.83
2019-05-02T03:49:09.275Z,61.90
2019-05-02T03:51:37.425Z,63.73
2019-05-02T03:54:10.035Z,64.90
2019-05-02T03:56:37.606Z,62.70
2019-05-02T03:59:06.852Z,62.40
2019-05-02T04:01:41.324Z,63.63
2019-05-02T04:04:07.811Z,61.97
2019-05-02T04:06:37.094Z,62.33
2019-05-02T04:09:08.206Z,59.73
2019-05-02T04:11:39.439Z,59.90
2019-05-02T04:14:15.892Z,61.00
2019-05-02T04:16:41.043Z,63.47
2019-05-02T04:19:10.688Z,63.83
2019-05-02T04:21:39.958Z,62.67
2019-05-02T04:24:15.186Z,60.63
2019-05-02T04:26:52.232Z,60.83
2019-05-02T04:29:11.896Z,64.37
2019-05-02T04:31:41.101Z,62.37
2019-05-02T04:34:15.808Z,59.33
2019-05-02T04:36:45.670Z,61.30
2019-05-02T04:39:17.598Z,60.93
2019-05-02T04:41:43.533Z,62.57
2019-05-02T04:44:12.781Z,63.17
2019-05-02T04:46:43.454Z,65.10
2019-05-02T04:49:12.942Z,65.17
2019-05-02T04:51:50.658Z,64.10
2019-05-02T04:54:21.352Z,60.73
2019-05-02T04:56:49.700Z,63.03
2019-05-02T04:59:19.883Z,63.60
2019-05-02T05:01:54.634Z,59.53
2019-05-02T05:04:18.028Z,61.97
2019-05-02T05:06:56.434Z,57.97
2019-05-02T05:09:18.960Z,58.73
2019-05-02T05:11:48.323Z,58.47
2019-05-02T05:14:18.006Z,60.33
2019-05-02T05:16:51.701Z,58.23
2019-05-02T05:19:18.204Z,60.03
2019-05-02T05:21:47.716Z,62.43
2019-05-02T05:24:42.477Z,59.67
2019-05-02T05:27:13.256Z,60.83
2019-05-02T05:29:45.933Z,60.13
2019-05-02T05:32:14.152Z,58.67
2019-05-02T05:34:43.686Z,62.10
2019-05-02T05:37:13.543Z,61.40
2019-05-02T05:39:48.076Z,60.17
2019-05-02T05:42:13.959Z,58.77
2019-05-02T05:44:43.151Z,60.23
2019-05-02T05:47:16.923Z,60.97
2019-05-02T05:49:43.613Z,62.50
2019-05-02T05:52:12.794Z,61.33
2019-05-02T05:54:42.397Z,58.37
2019-05-02T05:57:12.190Z,60.43
2019-05-02T05:59:42.585Z,61.40
2019-05-02T06:02:14.608Z,61.60
2019-05-02T06:04:43.221Z,60.27
2019-05-02T06:07:12.483Z,59.40
2019-05-02T06:09:41.726Z,58.57
2019-05-02T06:12:11.716Z,60.00
2019-05-02T06:14:41.219Z,57.53
2019-05-02T06:17:10.815Z,58.40
2019-05-02T06:19:40.475Z,53.97
2019-05-02T06:22:09.760Z,50.43
2019-05-02T06:24:39.177Z,50.60
2019-05-02T06:27:08.411Z,50.17
2019-05-02T06:29:37.571Z,50.37
2019-05-02T06:32:06.763Z,41.90
2019-05-02T06:34:38.817Z,47.33
2019-05-02T06:37:08.105Z,39.53
2019-05-02T06:39:38.684Z,42.50
2019-05-02T06:42:08.051Z,39.00
2019-05-02T06:44:37.278Z,42.37
2019-05-02T06:47:06.929Z,39.20
2019-05-02T06:49:36.874Z,34.80
2019-05-02T06:52:06.384Z,34.10
2019-05-02T06:54:35.677Z,34.30
2019-05-02T06:57:05.108Z,32.37
2019-05-02T06:59:36.811Z,33.13
2019-05-02T07:02:06.150Z,35.00
2019-05-02T07:04:35.652Z,39.10
2019-05-02T07:07:05.018Z,36.07
2019-05-02T07:09:40.879Z,38.87
2019-05-02T07:12:09.887Z,50.53
2019-05-02T07:14:36.810Z,49.93
2019-05-02T07:17:13.922Z,54.27
2019-05-02T07:19:46.363Z,53.37
2019-05-02T07:22:15.694Z,52.27
2019-05-02T07:24:45.149Z,51.10
2019-05-02T07:27:14.650Z,52.50
2019-05-02T07:29:44.372Z,51.60
2019-05-02T07:32:13.964Z,49.60
2019-05-02T07:34:44.142Z,49.90
2019-05-02T07:37:14.383Z,49.23
2019-05-02T07:39:43.850Z,49.77
2019-05-02T07:42:13.276Z,48.90
2019-05-02T07:44:42.818Z,46.60
2019-05-02T07:47:11.982Z,44.93
2019-05-02T07:49:41.187Z,46.70
2019-05-02T07:52:10.346Z,43.63
2019-05-02T07:54:39.972Z,43.03
2019-05-02T07:57:09.391Z,43.77
2019-05-02T07:59:38.564Z,44.70
2019-05-02T08:02:07.914Z,45.07
2019-05-02T08:04:37.173Z,42.77
2019-05-02T08:07:06.411Z,42.00
2019-05-02T08:09:39.159Z,43.77
2019-05-02T08:12:08.129Z,43.57
2019-05-02T08:14:37.306Z,42.03
2019-05-02T08:17:16.170Z,41.83
2019-05-02T08:19:41.596Z,39.93
2019-05-02T08:22:13.350Z,41.07
2019-05-02T08:24:39.427Z,42.33
2019-05-02T08:27:36.745Z,41.40
2019-05-02T08:30:06.446Z,43.63
2019-05-02T08:32:35.674Z,42.10
2019-05-02T08:35:05.308Z,41.77
2019-05-02T08:37:35.177Z,42.93
2019-05-02T08:40:10.741Z,45.77
2019-05-02T08:42:37.418Z,46.13
2019-05-02T08:45:06.781Z,45.37
2019-05-02T08:47:36.282Z,45.87
2019-05-02T08:50:07.721Z,44.23
2019-05-02T08:52:41.636Z,41.50
2019-05-02T08:55:09.709Z,40.57
2019-05-02T08:57:38.935Z,43.33
2019-05-02T09:00:10.229Z,41.03
2019-05-02T09:02:41.426Z,38.87
2019-05-02T09:05:10.845Z,38.67
2019-05-02T09:07:42.885Z,39.83
2019-05-02T09:10:11.557Z,40.40
2019-05-02T09:12:45.064Z,38.33
2019-05-02T09:15:12.463Z,37.17
2019-05-02T09:17:46.077Z,37.53
2019-05-02T09:20:16.661Z,35.47
2019-05-02T09:22:46.700Z,32.53
2019-05-02T09:25:15.951Z,32.80
2019-05-02T09:27:45.225Z,31.57
2019-05-02T09:30:17.127Z,33.70
2019-05-02T09:32:46.328Z,33.20
2019-05-02T09:35:15.575Z,33.23
2019-05-02T09:37:44.747Z,30.47
2019-05-02T09:40:16.727Z,29.53
2019-05-02T09:42:47.553Z,29.77
2019-05-02T09:45:27.807Z,30.67
2019-05-02T09:48:04.156Z,30.57
2019-05-02T09:50:31.201Z,30.63
2019-05-02T09:52:56.715Z,30.70
2019-05-02T09:55:25.901Z,30.70
2019-05-02T09:57:55.336Z,31.77
2019-05-02T10:00:42.714Z,31.90
2019-05-02T10:03:12.573Z,31.50
2019-05-02T10:05:43.070Z,34.83
2019-05-02T10:08:13.896Z,35.37
2019-05-02T10:10:45.857Z,35.37
2019-05-02T10:13:14.447Z,33.87
2019-05-02T10:15:43.703Z,34.13
2019-05-02T10:18:14.560Z,34.27
2019-05-02T10:20:43.860Z,35.30
2019-05-02T10:23:19.573Z,34.57
2019-05-02T10:25:46.972Z,34.40
2019-05-02T10:28:16.176Z,35.93
2019-05-02T10:30:47.270Z,36.50
2019-05-02T10:33:16.738Z,34.80
2019-05-02T10:35:48.010Z,33.77
2019-05-02T10:38:19.368Z,35.60
2019-05-02T10:40:53.092Z,36.00
2019-05-02T10:43:19.436Z,36.37
2019-05-02T10:45:56.495Z,38.00
2019-05-02T10:48:28.930Z,39.07
2019-05-02T10:51:17.826Z,40.17
2019-05-02T10:53:51.955Z,41.00
2019-05-02T10:56:18.122Z,43.30
2019-05-02T10:58:47.397Z,43.83
2019-05-02T11:01:17.742Z,44.77
2019-05-02T11:03:47.975Z,47.03
2019-05-02T11:06:17.938Z,46.47
2019-05-02T11:08:47.182Z,45.80
2019-05-02T11:11:16.623Z,49.70
2019-05-02T11:14:01.026Z,50.73
2019-05-02T11:16:56.885Z,51.83
2019-05-02T11:19:42.005Z,50.00
2019-05-02T11:22:12.100Z,51.30
2019-05-02T11:24:41.776Z,51.87
2019-05-02T11:27:12.837Z,55.80
2019-05-02T11:29:42.610Z,54.90
2019-05-02T11:32:12.830Z,53.37
2019-05-02T11:34:42.162Z,56.77
2019-05-02T11:37:12.231Z,54.77
2019-05-02T11:39:46.865Z,52.87
2019-05-02T11:42:12.580Z,52.50
2019-05-02T11:44:42.016Z,50.13
2019-05-02T11:47:12.586Z,54.20
2019-05-02T11:49:46.534Z,50.83
2019-05-02T11:52:13.264Z,51.90
2019-05-02T11:54:46.774Z,53.30
2019-05-02T11:57:14.555Z,55.90
2019-05-02T11:59:43.925Z,54.43
2019-05-02T12:02:24.961Z,56.57
2019-05-02T12:04:55.538Z,55.97
2019-05-02T12:07:25.161Z,57.33
2019-05-02T12:09:57.104Z,55.93
2019-05-02T12:12:27.238Z,55.57
2019-05-02T12:14:56.459Z,56.10
2019-05-02T12:17:25.636Z,54.47
2019-05-02T12:19:54.873Z,53.70
2019-05-02T12:22:24.076Z,55.07
2019-05-02T12:24:53.572Z,52.63
2019-05-02T12:27:23.015Z,52.00
2019-05-02T12:29:57.732Z,53.87
2019-05-02T12:32:23.711Z,51.00
2019-05-02T12:34:53.035Z,51.97
2019-05-02T12:37:22.263Z,53.50
2019-05-02T12:39:51.787Z,54.87
2019-05-02T12:42:23.965Z,51.27
2019-05-02T12:44:53.251Z,51.17
2019-05-02T12:47:22.635Z,53.20
2019-05-02T12:49:52.088Z,52.23
2019-05-02T12:52:22.567Z,53.60
2019-05-02T12:54:52.538Z,54.80
2019-05-02T12:57:22.231Z,53.70
2019-05-02T12:59:52.445Z,49.27
2019-05-02T13:02:32.103Z,48.20
2019-05-02T13:05:02.486Z,46.97
2019-05-02T13:07:31.875Z,43.20
2019-05-02T13:10:02.420Z,45.10
2019-05-02T13:12:35.254Z,46.40
2019-05-02T13:15:04.689Z,51.17
2019-05-02T13:17:37.168Z,38.17
2019-05-02T13:20:08.206Z,35.40
2019-05-02T13:23:03.437Z,40.30
2019-05-02T13:25:36.849Z,42.00
2019-05-02T13:28:04.279Z,43.90
2019-05-02T13:30:52.766Z,44.03
2019-05-02T13:33:32.453Z,43.57
2019-05-02T13:36:02.538Z,45.70
2019-05-02T13:38:32.944Z,44.77
2019-05-02T13:41:02.731Z,44.50
2019-05-02T13:43:39.255Z,47.37
2019-05-02T13:46:13.880Z,47.60
2019-05-02T13:48:43.393Z,45.53
2019-05-02T13:51:13.531Z,47.63
2019-05-02T13:53:57.670Z,45.63
2019-05-02T13:56:45.919Z,33.13
2019-05-02T13:59:15.823Z,42.23
2019-05-02T14:01:47.010Z,40.73
2019-05-02T14:04:16.515Z,36.23
2019-05-02T14:06:45.713Z,36.77
2019-05-02T14:09:34.803Z,37.27
2019-05-02T14:12:14.601Z,36.17
2019-05-02T14:14:43.876Z,28.73
2019-05-02T14:17:13.167Z,33.23
2019-05-02T14:19:42.636Z,32.90
2019-05-02T14:22:12.847Z,34.93
2019-05-02T14:24:42.452Z,36.47
2019-05-02T14:27:12.887Z,31.43
2019-05-02T14:29:42.857Z,33.63
2019-05-02T14:32:21.442Z,31.03
2019-05-02T14:35:05.299Z,30.17
2019-05-02T14:37:34.563Z,29.87
2019-05-02T14:40:22.411Z,31.07
2019-05-02T14:42:52.904Z,32.83
2019-05-02T14:45:30.244Z,32.63
2019-05-02T14:47:57.274Z,31.17
2019-05-02T14:50:26.556Z,34.53
2019-05-02T14:52:56.900Z,33.40
2019-05-02T14:55:29.042Z,34.03
2019-05-02T14:58:01.105Z,36.13
2019-05-02T15:00:31.566Z,34.10
2019-05-02T15:03:03.383Z,32.63
2019-05-02T15:05:32.707Z,33.07
2019-05-02T15:08:06.669Z,32.03
2019-05-02T15:10:36.357Z,32.03
2019-05-02T15:13:04.758Z,29.13
2019-05-02T15:15:40.766Z,29.03
2019-05-02T15:18:07.967Z,29.93
2019-05-02T15:20:39.190Z,29.60
2019-05-02T15:23:07.141Z,23.10
2019-05-02T15:25:37.754Z,31.90
2019-05-02T15:28:09.633Z,32.17
2019-05-02T15:30:44.815Z,28.87
2019-05-02T15:33:17.154Z,28.87
2019-05-02T15:35:57.184Z,32.63
2019-05-02T15:38:28.006Z,25.37
2019-05-02T15:40:59.319Z,27.27
2019-05-02T15:44:13.132Z,28.27
2019-05-02T15:46:42.689Z,27.97
2019-05-02T15:49:12.405Z,29.23
2019-05-02T15:51:43.662Z,32.20
2019-05-02T15:54:13.351Z,28.30
2019-05-02T15:57:00.501Z,25.40
2019-05-02T15:59:44.479Z,24.40
2019-05-02T16:02:10.569Z,23.17
2019-05-02T16:04:41.779Z,22.50
2019-05-02T16:07:12.203Z,22.80
2019-05-02T16:09:41.923Z,20.67
2019-05-02T16:12:12.196Z,18.80
2019-05-02T16:14:42.478Z,13.07
2019-05-02T16:17:12.547Z,14.17
2019-05-02T16:19:46.782Z,15.57
2019-05-02T16:22:17.498Z,16.63
2019-05-02T16:24:48.865Z,17.20
2019-05-02T16:27:23.786Z,18.07
2019-05-02T16:29:48.569Z,18.50
2019-05-02T16:32:37.861Z,20.20
2019-05-02T16:35:15.320Z,19.33
2019-05-02T16:37:39.360Z,20.73
2019-05-02T16:40:11.906Z,24.83
2019-05-02T16:42:41.918Z,26.40
2019-05-02T16:45:11.960Z,26.10
2019-05-02T16:47:42.282Z,25.17
2019-05-02T16:50:12.379Z,25.60
2019-05-02T16:52:43.669Z,25.03
2019-05-02T16:55:20.641Z,24.77
2019-05-02T16:57:44.116Z,26.93
2019-05-02T17:00:16.355Z,26.27
2019-05-02T17:02:46.479Z,27.37
2019-05-02T17:05:16.211Z,29.87
2019-05-02T17:08:18.503Z,30.03
2019-05-02T17:10:53.704Z,30.77
2019-05-02T17:13:21.640Z,32.40
2019-05-02T17:15:52.301Z,32.57
2019-05-02T17:18:22.789Z,34.60
2019-05-02T17:20:56.362Z,35.00
2019-05-02T17:23:23.093Z,34.73
2019-05-02T17:25:52.389Z,35.90
2019-05-02T17:28:22.328Z,36.13
2019-05-02T17:30:52.503Z,36.10
2019-05-02T17:33:21.884Z,37.37
2019-05-02T17:35:54.199Z,38.73
2019-05-02T17:38:25.068Z,38.17
2019-05-02T17:40:54.492Z,39.10
2019-05-02T17:43:24.426Z,39.43
2019-05-02T17:45:53.653Z,39.10
2019-05-02T17:48:23.162Z,41.20
2019-05-02T17:51:12.372Z,41.83
2019-05-02T17:53:49.337Z,40.57
2019-05-02T17:56:20.955Z,40.07
2019-05-02T17:58:47.323Z,40.60
2019-05-02T18:01:21.656Z,41.83
2019-05-02T18:03:52.062Z,41.63
2019-05-02T18:06:32.439Z,40.27
2019-05-02T18:08:55.235Z,41.83
2019-05-02T18:11:23.253Z,41.83
2019-05-02T18:13:52.849Z,45.80
2019-05-02T18:16:22.136Z,43.57
2019-05-02T18:18:52.144Z,43.27
2019-05-02T18:21:26.910Z,46.40
2019-05-02T18:23:57.044Z,44.97
2019-05-02T18:26:23.626Z,46.27
2019-05-02T18:28:57.208Z,45.10
2019-05-02T18:31:24.308Z,45.67
2019-05-02T18:33:53.765Z,43.97
2019-05-02T18:36:26.810Z,43.50
2019-05-02T18:39:00.660Z,43.73
2019-05-02T18:41:25.870Z,44.93
2019-05-02T18:43:55.180Z,44.23
2019-05-02T18:46:24.495Z,44.13
2019-05-02T18:48:53.771Z,42.73
2019-05-02T18:51:22.981Z,42.20
2019-05-02T18:53:52.976Z,43.90
2019-05-02T18:56:22.582Z,41.53
2019-05-02T18:58:53.487Z,41.70
2019-05-02T19:01:22.827Z,39.17
2019-05-02T19:03:56.093Z,42.07
2019-05-02T19:06:23.075Z,41.33
2019-05-02T19:08:53.540Z,42.23
2019-05-02T19:11:26.853Z,40.43
2019-05-02T19:13:54.308Z,41.70
2019-05-02T19:16:27.236Z,41.30
2019-05-02T19:18:57.393Z,42.97
2019-05-02T19:21:26.536Z,31.43
2019-05-02T19:23:57.083Z,32.07
2019-05-02T19:26:26.669Z,31.00
2019-05-02T19:29:17.184Z,25.20
2019-05-02T19:31:48.510Z,18.17
2019-05-02T19:34:22.844Z,17.03
2019-05-02T19:36:49.125Z,18.00
2019-05-02T19:39:18.426Z,17.00
2019-05-02T19:41:47.995Z,17.43
2019-05-02T19:44:21.431Z,17.90
2019-05-02T19:46:48.148Z,19.77
2019-05-02T19:49:17.697Z,20.60
2019-05-02T19:51:50.390Z,19.63
2019-05-02T19:54:17.869Z,23.07
2019-05-02T19:56:47.674Z,25.70
2019-05-02T19:59:22.440Z,27.73
2019-05-02T20:01:48.011Z,28.77
2019-05-02T20:04:17.495Z,29.80
2019-05-02T20:06:46.812Z,28.67
2019-05-02T20:09:16.045Z,27.33
2019-05-02T20:11:45.676Z,25.90
2019-05-02T20:14:14.870Z,23.60
2019-05-02T20:16:49.834Z,19.10
2019-05-02T20:19:23.092Z,17.37
2019-05-02T20:22:02.793Z,14.43
2019-05-02T20:24:49.209Z,13.37
2019-05-02T20:27:18.559Z,11.87
2019-05-02T20:29:47.894Z,12.87
2019-05-02T20:32:17.223Z,11.17
2019-05-02T20:34:46.588Z,11.57
2019-05-02T20:37:16.295Z,10.90
2019-05-02T20:39:45.551Z,10.60
2019-05-02T20:42:15.457Z,10.67
2019-05-02T20:44:44.875Z,9.50
2019-05-02T20:47:18.240Z,9.50
2019-05-02T20:49:47.545Z,9.87
2019-05-02T20:52:16.855Z,10.17
2019-05-02T20:54:46.243Z,10.80
2019-05-02T20:57:15.877Z,10.27
2019-05-02T20:59:45.250Z,10.73
2019-05-02T21:02:14.641Z,9.93
2019-05-02T21:04:43.967Z,10.77
2019-05-02T21:07:34.705Z,9.53
2019-05-02T21:10:17.087Z,10.40
2019-05-02T21:12:46.350Z,10.63
2019-05-02T21:15:18.259Z,10.90
2019-05-02T21:17:47.167Z,10.93
2019-05-02T21:20:16.449Z,11.23
2019-05-02T21:22:45.821Z,11.13
2019-05-02T21:25:15.127Z,10.77
2019-05-02T21:27:44.535Z,11.07
2019-05-02T21:30:14.756Z,11.10
2019-05-02T21:32:44.064Z,10.63
2019-05-02T21:35:13.679Z,10.33
2019-05-02T21:37:43.385Z,10.43
2019-05-02T21:40:13.544Z,11.00
2019-05-02T21:42:42.837Z,10.57
2019-05-02T21:45:13.164Z,11.03
2019-05-02T21:47:42.749Z,10.27
2019-05-02T21:50:21.751Z,9.93
2019-05-02T21:53:12.595Z,10.53
2019-05-02T21:55:52.066Z,11.33
2019-05-02T21:58:21.640Z,11.33
2019-05-02T22:01:02.037Z,11.67
2019-05-02T22:03:32.454Z,12.00
2019-05-02T22:06:02.006Z,12.53
2019-05-02T22:08:32.313Z,12.37
2019-05-02T22:11:02.071Z,12.80
2019-05-02T22:13:33.269Z,13.83
2019-05-02T22:16:02.688Z,13.13
2019-05-02T22:18:32.248Z,14.30
2019-05-02T22:21:01.810Z,14.50
2019-05-02T22:23:33.836Z,15.33
2019-05-02T22:26:02.502Z,15.57
2019-05-02T22:28:32.668Z,15.80
2019-05-02T22:31:03.241Z,16.47
2019-05-02T22:33:33.074Z,17.77
2019-05-02T22:36:02.654Z,17.60
2019-05-02T22:38:45.248Z,17.13
2019-05-02T22:41:14.880Z,17.07
2019-05-02T22:43:44.271Z,18.57
2019-05-02T22:46:16.030Z,18.47
2019-05-02T22:48:45.335Z,17.83
2019-05-02T22:51:15.151Z,17.23
2019-05-02T22:53:44.536Z,18.20
2019-05-02T22:56:13.836Z,19.87
2019-05-02T22:58:43.439Z,19.27
2019-05-02T23:01:13.505Z,17.63
2019-05-02T23:03:43.114Z,16.70
2019-05-02T23:06:12.572Z,16.67
2019-05-02T23:08:43.508Z,15.80
2019-05-02T23:11:13.043Z,16.30
2019-05-02T23:13:42.474Z,17.13
2019-05-02T23:16:12.078Z,15.30
2019-05-02T23:18:42.584Z,15.00
2019-05-02T23:21:12.730Z,14.43
2019-05-02T23:23:42.528Z,14.37
2019-05-02T23:26:18.668Z,13.13
2019-05-02T23:28:51.686Z,13.60
2019-05-02T23:31:22.628Z,13.10
2019-05-02T23:34:02.130Z,13.07
2019-05-02T23:36:32.825Z,13.07
2019-05-02T23:39:02.529Z,13.53
2019-05-02T23:41:32.868Z,13.87
2019-05-02T23:44:02.906Z,13.00
2019-05-02T23:46:32.231Z,13.93
2019-05-02T23:49:02.036Z,13.47
2019-05-02T23:51:32.437Z,13.33
2019-05-02T23:54:02.226Z,13.30
2019-05-02T23:56:32.636Z,13.77
2019-05-02T23:59:02.873Z,13.63
